In Rescue
 
Open Full Screen Window  High Contrast Mode
Wind Gusting 18 knots
11
October 25, 2021 5:13 PM EDT
Present Weather: Light Rain
Weather Information
Wind Direction
  030 °
Wind Speed
  11 kt (13 mph)
Wind Gust
  18 kt (21 mph)
Altimeter
29.79 in
Visibility
10 SM
Temperature
10° C
50° F
Dewpoint
09° C
48° F
Humidity
94%
Sky Condition
Overcast @ 2,300 ft
Broken @ 1,600 ft
MVFR

METAR KVLL 252113Z AUTO 03011G18KT 10SM -RA BKN016 OVC023 10/09 A2979 RMK AO2 T00970085

FAA Disclaimer: The data displayed is for advisory purposes only and is not to be used for flight planning or operations.